Detall de PIREP

Printer-friendly versionPDF version

[2017/08/08 04:56:00]
Flight IATA:CT2105
Pilot Number:041
Company ICAO:CAT
Aircraft Type:B738/F
PAX:119
Departing Airport: LEBB
Destination Airport: LEVC
Alternate Airport:LEBL
Online: VATSIM
Route:PPN UM601 MARIO POSSY UN862 MLA UN860 SAURA
Flight Level:FL330
No Slew and time accel
No pause
Crash detect
Detect pilot in Cockpit between each 30 and 45 minutes
04:56 Zero fuel Weight: 135599 Lbs, Fuel Weight: 12709 Lbs
04:56 VATSIM:LEBB 080430Z VRB02KT 9999 FEW030 SCT045 16/14 Q1018 NOSIG
04:56 VATSIM:LEVC 080430Z 25003KT 9999 FEW060 24/23 Q1008 NOSIG
04:56 VOICE CATALONIAN
05:08 Parking Brakes off
05:14 Take-off
05:14 Take off Weight: 147449 Lbs
05:14 Wind: 003º @ 005 Knots Heading: 095º
05:14 POS N43º 18´ 04´´ W002º 54´ 44´´
05:14 Flaps:3 at 168 Knots
05:14 Gear Up: 169 Knots
05:14 Flaps:2 at 170 Knots
05:14 Flaps:1 at 194 Knots
05:14 Flaps:0 at 203 Knots
05:29 Wind:315º@057 Knots Heading: 113º Ground Speed: 516 Knots Altitude 29353 ft
05:31 TOC
05:31 Fuel Weight: 8038 Lb
05:44 Wind:271º@047 Knots Heading: 187º Ground Speed: 457 Knots Altitude 32995 ft
05:45 TOD
05:45 Fuel Weight: 6752 Lb
05:58 Flaps:1 at 233 Knots
05:58 Flaps:2 at 233 Knots
05:58 Flaps:3 at 231 Knots
05:58 Flaps:4 at 223 Knots
05:59 Wind:275º@011 Knots Heading: 178º Ground Speed: 230 Knots Altitude 6463 ft
06:00 Flaps:5 at 187 Knots
06:01 Flaps:7 at 169 Knots
06:04 Gear Down: 170 Knots
06:05 Flaps:8 at 155 Knots
06:08 TouchDown:Rate -226 ft/min Speed: 131 Knots
06:08 VATSIM:LEVC 080530Z 27003KT 250V330 9999 FEW050 23/22 Q1009 NOSIG
06:08 Land
06:08 Wind:073º@009 Knots
06:08 Heading: 296º
06:08 Flight Duration: 00:54
06:08 Landing Weight: 140770 Lbs
06:08 POS N39º 29´ 20´´ W000º 28´ 50´´
06:11 Parking brakes on
06:11 Block to Block Duration: 01:03
06:11 Final Fuel: 5011 Lbls
06:11 Spent Fuel: 7698 Lbls
06:11 Flight Length: 337 NM
06:11 TOD Land Length: 110 NM

Exportar CSV

Powered by Drupal - Modified by Danger4k